sensor_id;sensor_type;location;lat;lon;timestamp;P1;durP1;ratioP1;P2;durP2;ratioP2
12476;SDS011;6303;51.504;6.300;2022-11-11T00:00:37;1.65;;;1.50;;
12476;SDS011;6303;51.504;6.300;2022-11-11T00:03:23;2.67;;;1.17;;
12476;SDS011;6303;51.504;6.300;2022-11-11T00:06:10;2.08;;;1.67;;
12476;SDS011;6303;51.504;6.300;2022-11-11T00:08:57;2.17;;;1.40;;
12476;SDS011;6303;51.504;6.300;2022-11-11T00:11:44;1.98;;;1.50;;
12476;SDS011;6303;51.504;6.300;2022-11-11T00:14:29;1.70;;;1.40;;
12476;SDS011;6303;51.504;6.300;2022-11-11T00:17:14;2.78;;;1.70;;
12476;SDS011;6303;51.504;6.300;2022-11-11T00:20:17;1.60;;;1.40;;
12476;SDS011;6303;51.504;6.300;2022-11-11T00:23:22;1.65;;;1.50;;
12476;SDS011;6303;51.504;6.300;2022-11-11T00:26:27;2.53;;;1.50;;
12476;SDS011;6303;51.504;6.300;2022-11-11T00:29:14;1.30;;;1.20;;
12476;SDS011;6303;51.504;6.300;2022-11-11T00:31:59;3.08;;;1.60;;
12476;SDS011;6303;51.504;6.300;2022-11-11T00:35:02;1.73;;;1.38;;
12476;SDS011;6303;51.504;6.300;2022-11-11T00:38:06;1.67;;;1.40;;
12476;SDS011;6303;51.504;6.300;2022-11-11T00:40:53;1.52;;;1.38;;
12476;SDS011;6303;51.504;6.300;2022-11-11T00:43:38;1.80;;;1.40;;
12476;SDS011;6303;51.504;6.300;2022-11-11T00:46:25;1.33;;;1.25;;
12476;SDS011;6303;51.504;6.300;2022-11-11T00:49:29;1.83;;;1.30;;
12476;SDS011;6303;51.504;6.300;2022-11-11T00:52:32;1.27;;;1.17;;
12476;SDS011;6303;51.504;6.300;2022-11-11T00:55:17;1.45;;;1.30;;
12476;SDS011;6303;51.504;6.300;2022-11-11T00:58:03;2.60;;;1.48;;
12476;SDS011;6303;51.504;6.300;2022-11-11T01:00:48;1.83;;;1.42;;
12476;SDS011;6303;51.504;6.300;2022-11-11T01:03:37;1.75;;;1.42;;
12476;SDS011;6303;51.504;6.300;2022-11-11T01:06:23;1.98;;;1.42;;
12476;SDS011;6303;51.504;6.300;2022-11-11T01:09:09;1.83;;;1.38;;
12476;SDS011;6303;51.504;6.300;2022-11-11T01:11:55;3.35;;;1.50;;
12476;SDS011;6303;51.504;6.300;2022-11-11T01:14:40;2.13;;;1.42;;
12476;SDS011;6303;51.504;6.300;2022-11-11T01:17:27;2.60;;;1.63;;
12476;SDS011;6303;51.504;6.300;2022-11-11T01:20:14;2.03;;;1.42;;
12476;SDS011;6303;51.504;6.300;2022-11-11T01:23:00;1.77;;;1.30;;
12476;SDS011;6303;51.504;6.300;2022-11-11T01:25:46;1.40;;;1.30;;
12476;SDS011;6303;51.504;6.300;2022-11-11T01:28:32;2.00;;;1.42;;
12476;SDS011;6303;51.504;6.300;2022-11-11T01:31:18;3.10;;;1.30;;
12476;SDS011;6303;51.504;6.300;2022-11-11T01:34:04;1.83;;;1.30;;
12476;SDS011;6303;51.504;6.300;2022-11-11T01:36:51;1.75;;;1.40;;
12476;SDS011;6303;51.504;6.300;2022-11-11T01:39:36;1.33;;;1.20;;
12476;SDS011;6303;51.504;6.300;2022-11-11T01:42:22;2.10;;;1.38;;
12476;SDS011;6303;51.504;6.300;2022-11-11T01:48:28;1.65;;;1.50;;
12476;SDS011;6303;51.504;6.300;2022-11-11T01:51:37;1.38;;;1.25;;
12476;SDS011;6303;51.504;6.300;2022-11-11T01:54:27;2.65;;;1.30;;
12476;SDS011;6303;51.504;6.300;2022-11-11T01:57:18;2.42;;;1.40;;
12476;SDS011;6303;51.504;6.300;2022-11-11T02:00:09;1.85;;;1.40;;
12476;SDS011;6303;51.504;6.300;2022-11-11T02:02:57;1.30;;;1.20;;
12476;SDS011;6303;51.504;6.300;2022-11-11T02:05:47;1.40;;;1.30;;
12476;SDS011;6303;51.504;6.300;2022-11-11T02:08:33;1.20;;;1.20;;
12476;SDS011;6303;51.504;6.300;2022-11-11T02:11:22;1.40;;;1.30;;
12476;SDS011;6303;51.504;6.300;2022-11-11T02:14:33;1.48;;;1.23;;
12476;SDS011;6303;51.504;6.300;2022-11-11T02:17:26;2.30;;;1.45;;
12476;SDS011;6303;51.504;6.300;2022-11-11T02:20:15;1.73;;;1.30;;
12476;SDS011;6303;51.504;6.300;2022-11-11T02:23:05;2.25;;;1.52;;
12476;SDS011;6303;51.504;6.300;2022-11-11T02:25:56;2.03;;;1.25;;
12476;SDS011;6303;51.504;6.300;2022-11-11T02:28:44;2.42;;;1.50;;
12476;SDS011;6303;51.504;6.300;2022-11-11T02:31:30;1.63;;;1.38;;
12476;SDS011;6303;51.504;6.300;2022-11-11T02:34:16;1.30;;;1.20;;
12476;SDS011;6303;51.504;6.300;2022-11-11T02:37:03;1.42;;;1.33;;
12476;SDS011;6303;51.504;6.300;2022-11-11T02:39:51;1.58;;;1.30;;
12476;SDS011;6303;51.504;6.300;2022-11-11T02:42:43;1.50;;;1.40;;
12476;SDS011;6303;51.504;6.300;2022-11-11T02:45:28;2.33;;;1.48;;
12476;SDS011;6303;51.504;6.300;2022-11-11T02:48:14;1.40;;;1.30;;
12476;SDS011;6303;51.504;6.300;2022-11-11T02:50:59;1.70;;;1.60;;
12476;SDS011;6303;51.504;6.300;2022-11-11T02:53:45;1.95;;;1.40;;
12476;SDS011;6303;51.504;6.300;2022-11-11T02:56:30;1.55;;;1.20;;
12476;SDS011;6303;51.504;6.300;2022-11-11T02:59:31;1.45;;;1.33;;
12476;SDS011;6303;51.504;6.300;2022-11-11T03:02:17;1.33;;;1.23;;
12476;SDS011;6303;51.504;6.300;2022-11-11T03:05:02;1.45;;;1.25;;
12476;SDS011;6303;51.504;6.300;2022-11-11T03:07:48;1.50;;;1.40;;
12476;SDS011;6303;51.504;6.300;2022-11-11T03:10:34;2.20;;;1.50;;
12476;SDS011;6303;51.504;6.300;2022-11-11T03:13:20;1.30;;;1.20;;
12476;SDS011;6303;51.504;6.300;2022-11-11T03:16:07;1.50;;;1.40;;
12476;SDS011;6303;51.504;6.300;2022-11-11T03:19:13;2.05;;;1.40;;
12476;SDS011;6303;51.504;6.300;2022-11-11T03:21:57;1.70;;;1.50;;
12476;SDS011;6303;51.504;6.300;2022-11-11T03:24:43;1.42;;;1.30;;
12476;SDS011;6303;51.504;6.300;2022-11-11T03:27:46;1.58;;;1.20;;
12476;SDS011;6303;51.504;6.300;2022-11-11T03:30:32;1.55;;;1.30;;
12476;SDS011;6303;51.504;6.300;2022-11-11T03:33:19;1.70;;;1.40;;
12476;SDS011;6303;51.504;6.300;2022-11-11T03:36:04;1.25;;;1.15;;
12476;SDS011;6303;51.504;6.300;2022-11-11T03:38:50;1.80;;;1.38;;
12476;SDS011;6303;51.504;6.300;2022-11-11T03:41:35;1.40;;;1.30;;
12476;SDS011;6303;51.504;6.300;2022-11-11T03:44:20;1.40;;;1.30;;
12476;SDS011;6303;51.504;6.300;2022-11-11T03:47:06;1.55;;;1.10;;
12476;SDS011;6303;51.504;6.300;2022-11-11T03:49:53;1.90;;;1.50;;
12476;SDS011;6303;51.504;6.300;2022-11-11T03:52:39;1.70;;;1.30;;
12476;SDS011;6303;51.504;6.300;2022-11-11T03:55:26;1.95;;;1.27;;
12476;SDS011;6303;51.504;6.300;2022-11-11T03:58:12;1.08;;;1.05;;
12476;SDS011;6303;51.504;6.300;2022-11-11T04:00:58;1.50;;;1.27;;
12476;SDS011;6303;51.504;6.300;2022-11-11T04:04:03;1.30;;;1.20;;
12476;SDS011;6303;51.504;6.300;2022-11-11T04:07:08;1.30;;;1.17;;
12476;SDS011;6303;51.504;6.300;2022-11-11T04:10:11;2.72;;;1.38;;
12476;SDS011;6303;51.504;6.300;2022-11-11T04:13:11;2.38;;;1.30;;
12476;SDS011;6303;51.504;6.300;2022-11-11T04:16:15;1.50;;;1.40;;
12476;SDS011;6303;51.504;6.300;2022-11-11T04:19:00;1.30;;;1.20;;
12476;SDS011;6303;51.504;6.300;2022-11-11T04:22:04;1.88;;;1.20;;
12476;SDS011;6303;51.504;6.300;2022-11-11T04:24:50;1.88;;;1.50;;
12476;SDS011;6303;51.504;6.300;2022-11-11T04:27:55;1.40;;;1.30;;
12476;SDS011;6303;51.504;6.300;2022-11-11T04:30:55;1.30;;;1.20;;
12476;SDS011;6303;51.504;6.300;2022-11-11T04:33:40;2.00;;;1.52;;
12476;SDS011;6303;51.504;6.300;2022-11-11T04:36:26;1.42;;;1.33;;
12476;SDS011;6303;51.504;6.300;2022-11-11T04:39:11;1.40;;;1.30;;
12476;SDS011;6303;51.504;6.300;2022-11-11T04:42:12;1.92;;;1.38;;
12476;SDS011;6303;51.504;6.300;2022-11-11T04:44:58;1.98;;;1.33;;
12476;SDS011;6303;51.504;6.300;2022-11-11T04:48:02;1.88;;;1.30;;
12476;SDS011;6303;51.504;6.300;2022-11-11T04:50:49;1.75;;;1.40;;
12476;SDS011;6303;51.504;6.300;2022-11-11T04:53:34;2.95;;;1.33;;
12476;SDS011;6303;51.504;6.300;2022-11-11T04:56:21;2.35;;;1.20;;
12476;SDS011;6303;51.504;6.300;2022-11-11T04:59:25;1.38;;;1.20;;
12476;SDS011;6303;51.504;6.300;2022-11-11T05:02:11;1.90;;;1.40;;
12476;SDS011;6303;51.504;6.300;2022-11-11T05:05:28;1.40;;;1.30;;
12476;SDS011;6303;51.504;6.300;2022-11-11T05:08:37;1.60;;;1.50;;
12476;SDS011;6303;51.504;6.300;2022-11-11T05:11:37;1.67;;;1.33;;
12476;SDS011;6303;51.504;6.300;2022-11-11T05:14:23;2.15;;;1.45;;
12476;SDS011;6303;51.504;6.300;2022-11-11T05:17:28;1.73;;;1.27;;
12476;SDS011;6303;51.504;6.300;2022-11-11T05:20:31;1.55;;;1.20;;
12476;SDS011;6303;51.504;6.300;2022-11-11T05:23:34;1.70;;;1.60;;
12476;SDS011;6303;51.504;6.300;2022-11-11T05:26:33;1.42;;;1.33;;
12476;SDS011;6303;51.504;6.300;2022-11-11T05:29:18;1.42;;;1.10;;
12476;SDS011;6303;51.504;6.300;2022-11-11T05:32:04;1.40;;;1.30;;
12476;SDS011;6303;51.504;6.300;2022-11-11T05:34:53;1.35;;;1.25;;
12476;SDS011;6303;51.504;6.300;2022-11-11T05:37:38;1.20;;;1.10;;
12476;SDS011;6303;51.504;6.300;2022-11-11T05:40:24;1.33;;;1.23;;
12476;SDS011;6303;51.504;6.300;2022-11-11T05:43:10;1.55;;;1.20;;
12476;SDS011;6303;51.504;6.300;2022-11-11T05:45:55;1.45;;;1.30;;
12476;SDS011;6303;51.504;6.300;2022-11-11T05:48:41;1.60;;;1.40;;
12476;SDS011;6303;51.504;6.300;2022-11-11T05:51:42;1.60;;;1.40;;
12476;SDS011;6303;51.504;6.300;2022-11-11T05:54:27;1.30;;;1.20;;
12476;SDS011;6303;51.504;6.300;2022-11-11T05:57:13;1.67;;;1.20;;
12476;SDS011;6303;51.504;6.300;2022-11-11T05:59:58;1.65;;;1.30;;
12476;SDS011;6303;51.504;6.300;2022-11-11T06:02:44;1.80;;;1.20;;
12476;SDS011;6303;51.504;6.300;2022-11-11T06:05:30;1.52;;;1.30;;
12476;SDS011;6303;51.504;6.300;2022-11-11T06:08:17;2.35;;;1.20;;
12476;SDS011;6303;51.504;6.300;2022-11-11T06:11:02;2.13;;;1.42;;
12476;SDS011;6303;51.504;6.300;2022-11-11T06:13:48;1.45;;;1.35;;
12476;SDS011;6303;51.504;6.300;2022-11-11T06:16:34;1.65;;;1.30;;
12476;SDS011;6303;51.504;6.300;2022-11-11T06:19:20;10.38;;;3.17;;
12476;SDS011;6303;51.504;6.300;2022-11-11T06:22:05;16.80;;;3.88;;
12476;SDS011;6303;51.504;6.300;2022-11-11T06:24:52;23.73;;;4.93;;
12476;SDS011;6303;51.504;6.300;2022-11-11T06:27:57;29.25;;;6.45;;
12476;SDS011;6303;51.504;6.300;2022-11-11T06:30:43;25.83;;;7.25;;
12476;SDS011;6303;51.504;6.300;2022-11-11T06:33:29;26.25;;;6.85;;
12476;SDS011;6303;51.504;6.300;2022-11-11T06:36:16;19.63;;;5.60;;
12476;SDS011;6303;51.504;6.300;2022-11-11T06:39:03;20.90;;;5.13;;
12476;SDS011;6303;51.504;6.300;2022-11-11T06:41:50;16.38;;;4.97;;
12476;SDS011;6303;51.504;6.300;2022-11-11T06:44:35;14.70;;;4.20;;
12476;SDS011;6303;51.504;6.300;2022-11-11T06:47:21;11.50;;;4.13;;
12476;SDS011;6303;51.504;6.300;2022-11-11T06:50:07;14.25;;;4.05;;
12476;SDS011;6303;51.504;6.300;2022-11-11T06:52:53;8.05;;;3.25;;
12476;SDS011;6303;51.504;6.300;2022-11-11T06:55:38;8.48;;;3.35;;
12476;SDS011;6303;51.504;6.300;2022-11-11T06:58:25;10.50;;;2.80;;
12476;SDS011;6303;51.504;6.300;2022-11-11T07:01:11;9.70;;;3.30;;
12476;SDS011;6303;51.504;6.300;2022-11-11T07:03:57;8.25;;;2.75;;
12476;SDS011;6303;51.504;6.300;2022-11-11T07:06:42;8.45;;;2.83;;
12476;SDS011;6303;51.504;6.300;2022-11-11T07:09:28;8.45;;;2.60;;
12476;SDS011;6303;51.504;6.300;2022-11-11T07:12:14;6.72;;;2.65;;
12476;SDS011;6303;51.504;6.300;2022-11-11T07:15:01;9.70;;;3.00;;
12476;SDS011;6303;51.504;6.300;2022-11-11T07:17:46;5.72;;;2.85;;
12476;SDS011;6303;51.504;6.300;2022-11-11T07:20:31;5.72;;;2.35;;
12476;SDS011;6303;51.504;6.300;2022-11-11T07:23:17;5.90;;;2.55;;
12476;SDS011;6303;51.504;6.300;2022-11-11T07:26:02;4.72;;;2.30;;
12476;SDS011;6303;51.504;6.300;2022-11-11T07:28:48;5.40;;;2.58;;
12476;SDS011;6303;51.504;6.300;2022-11-11T07:31:35;4.53;;;2.50;;
12476;SDS011;6303;51.504;6.300;2022-11-11T07:34:20;4.68;;;2.30;;
12476;SDS011;6303;51.504;6.300;2022-11-11T07:37:06;8.55;;;2.80;;
12476;SDS011;6303;51.504;6.300;2022-11-11T07:39:51;5.47;;;2.25;;
12476;SDS011;6303;51.504;6.300;2022-11-11T07:42:37;6.10;;;2.13;;
12476;SDS011;6303;51.504;6.300;2022-11-11T07:45:23;3.92;;;2.13;;
12476;SDS011;6303;51.504;6.300;2022-11-11T07:48:10;3.40;;;2.03;;
12476;SDS011;6303;51.504;6.300;2022-11-11T07:50:56;5.63;;;2.15;;
12476;SDS011;6303;51.504;6.300;2022-11-11T07:53:41;3.78;;;2.28;;
12476;SDS011;6303;51.504;6.300;2022-11-11T07:56:27;4.13;;;2.17;;
12476;SDS011;6303;51.504;6.300;2022-11-11T07:59:12;2.90;;;1.90;;
12476;SDS011;6303;51.504;6.300;2022-11-11T08:01:58;4.88;;;2.40;;
12476;SDS011;6303;51.504;6.300;2022-11-11T08:04:45;3.90;;;2.15;;
12476;SDS011;6303;51.504;6.300;2022-11-11T08:07:32;4.75;;;2.10;;
12476;SDS011;6303;51.504;6.300;2022-11-11T08:10:18;4.05;;;1.90;;
12476;SDS011;6303;51.504;6.300;2022-11-11T08:13:03;3.22;;;2.08;;
12476;SDS011;6303;51.504;6.300;2022-11-11T08:16:12;5.20;;;2.00;;
12476;SDS011;6303;51.504;6.300;2022-11-11T08:18:59;3.40;;;1.92;;
12476;SDS011;6303;51.504;6.300;2022-11-11T08:21:45;3.33;;;2.00;;
12476;SDS011;6303;51.504;6.300;2022-11-11T08:24:31;4.40;;;2.05;;
12476;SDS011;6303;51.504;6.300;2022-11-11T08:27:17;2.13;;;1.88;;
12476;SDS011;6303;51.504;6.300;2022-11-11T08:30:03;3.60;;;2.13;;
12476;SDS011;6303;51.504;6.300;2022-11-11T08:32:55;2.95;;;2.10;;
12476;SDS011;6303;51.504;6.300;2022-11-11T08:35:41;3.75;;;2.00;;
12476;SDS011;6303;51.504;6.300;2022-11-11T08:38:28;5.57;;;2.13;;
12476;SDS011;6303;51.504;6.300;2022-11-11T08:41:13;2.67;;;2.00;;
12476;SDS011;6303;51.504;6.300;2022-11-11T08:43:59;4.22;;;2.08;;
12476;SDS011;6303;51.504;6.300;2022-11-11T08:46:44;3.08;;;2.03;;
12476;SDS011;6303;51.504;6.300;2022-11-11T08:49:30;2.72;;;2.10;;
12476;SDS011;6303;51.504;6.300;2022-11-11T08:52:15;3.63;;;1.83;;
12476;SDS011;6303;51.504;6.300;2022-11-11T08:55:03;2.42;;;1.70;;
12476;SDS011;6303;51.504;6.300;2022-11-11T08:57:56;3.25;;;2.10;;
12476;SDS011;6303;51.504;6.300;2022-11-11T09:00:42;4.00;;;2.40;;
12476;SDS011;6303;51.504;6.300;2022-11-11T09:03:28;5.20;;;2.30;;
12476;SDS011;6303;51.504;6.300;2022-11-11T09:06:14;4.03;;;2.08;;
12476;SDS011;6303;51.504;6.300;2022-11-11T09:09:00;2.13;;;1.70;;
12476;SDS011;6303;51.504;6.300;2022-11-11T09:11:47;2.95;;;2.08;;
12476;SDS011;6303;51.504;6.300;2022-11-11T09:14:32;4.45;;;2.15;;
12476;SDS011;6303;51.504;6.300;2022-11-11T09:17:18;4.10;;;2.05;;
12476;SDS011;6303;51.504;6.300;2022-11-11T09:20:04;2.83;;;2.15;;
12476;SDS011;6303;51.504;6.300;2022-11-11T09:22:50;2.55;;;2.28;;
12476;SDS011;6303;51.504;6.300;2022-11-11T09:25:36;2.20;;;2.00;;
12476;SDS011;6303;51.504;6.300;2022-11-11T09:28:23;3.50;;;2.20;;
12476;SDS011;6303;51.504;6.300;2022-11-11T09:31:09;4.13;;;2.13;;
12476;SDS011;6303;51.504;6.300;2022-11-11T09:33:54;3.28;;;2.13;;
12476;SDS011;6303;51.504;6.300;2022-11-11T09:36:40;2.92;;;2.10;;
12476;SDS011;6303;51.504;6.300;2022-11-11T09:39:26;3.75;;;2.10;;
12476;SDS011;6303;51.504;6.300;2022-11-11T09:42:13;3.30;;;2.00;;
12476;SDS011;6303;51.504;6.300;2022-11-11T09:45:17;4.57;;;1.90;;
12476;SDS011;6303;51.504;6.300;2022-11-11T09:48:07;4.18;;;2.03;;
12476;SDS011;6303;51.504;6.300;2022-11-11T09:51:14;3.35;;;2.00;;
12476;SDS011;6303;51.504;6.300;2022-11-11T09:54:05;3.30;;;2.00;;
12476;SDS011;6303;51.504;6.300;2022-11-11T09:56:57;4.45;;;2.13;;
12476;SDS011;6303;51.504;6.300;2022-11-11T09:59:45;2.75;;;1.77;;
12476;SDS011;6303;51.504;6.300;2022-11-11T10:02:37;3.22;;;1.77;;
12476;SDS011;6303;51.504;6.300;2022-11-11T10:05:25;3.83;;;1.70;;
12476;SDS011;6303;51.504;6.300;2022-11-11T10:08:18;4.00;;;1.77;;
12476;SDS011;6303;51.504;6.300;2022-11-11T10:11:11;2.08;;;1.75;;
12476;SDS011;6303;51.504;6.300;2022-11-11T10:14:00;3.30;;;1.95;;
12476;SDS011;6303;51.504;6.300;2022-11-11T10:16:48;2.47;;;1.75;;
12476;SDS011;6303;51.504;6.300;2022-11-11T10:19:46;2.20;;;1.80;;
12476;SDS011;6303;51.504;6.300;2022-11-11T10:22:41;2.45;;;1.75;;
12476;SDS011;6303;51.504;6.300;2022-11-11T10:25:27;3.55;;;1.70;;
12476;SDS011;6303;51.504;6.300;2022-11-11T10:28:14;1.70;;;1.60;;
12476;SDS011;6303;51.504;6.300;2022-11-11T10:31:03;2.10;;;1.90;;
12476;SDS011;6303;51.504;6.300;2022-11-11T10:33:56;2.38;;;1.60;;
12476;SDS011;6303;51.504;6.300;2022-11-11T10:36:48;3.30;;;1.83;;
12476;SDS011;6303;51.504;6.300;2022-11-11T10:39:41;3.50;;;1.70;;
12476;SDS011;6303;51.504;6.300;2022-11-11T10:42:37;3.00;;;1.60;;
12476;SDS011;6303;51.504;6.300;2022-11-11T10:45:25;2.13;;;1.85;;
12476;SDS011;6303;51.504;6.300;2022-11-11T10:48:14;1.70;;;1.60;;
12476;SDS011;6303;51.504;6.300;2022-11-11T10:51:04;3.65;;;1.67;;
12476;SDS011;6303;51.504;6.300;2022-11-11T10:53:55;2.58;;;1.75;;
12476;SDS011;6303;51.504;6.300;2022-11-11T10:56:49;1.75;;;1.65;;
12476;SDS011;6303;51.504;6.300;2022-11-11T10:59:43;3.28;;;1.77;;
12476;SDS011;6303;51.504;6.300;2022-11-11T11:02:36;1.88;;;1.45;;
12476;SDS011;6303;51.504;6.300;2022-11-11T11:05:28;3.40;;;1.80;;
12476;SDS011;6303;51.504;6.300;2022-11-11T11:08:18;3.05;;;1.50;;
12476;SDS011;6303;51.504;6.300;2022-11-11T11:11:10;1.55;;;1.45;;
12476;SDS011;6303;51.504;6.300;2022-11-11T11:14:05;2.75;;;1.77;;
12476;SDS011;6303;51.504;6.300;2022-11-11T11:16:57;2.85;;;1.95;;
12476;SDS011;6303;51.504;6.300;2022-11-11T11:20:09;2.13;;;1.50;;
12476;SDS011;6303;51.504;6.300;2022-11-11T11:22:57;2.67;;;1.50;;
12476;SDS011;6303;51.504;6.300;2022-11-11T11:25:44;3.42;;;1.70;;
12476;SDS011;6303;51.504;6.300;2022-11-11T11:28:52;2.10;;;1.50;;
12476;SDS011;6303;51.504;6.300;2022-11-11T11:31:39;3.60;;;1.83;;
12476;SDS011;6303;51.504;6.300;2022-11-11T11:34:40;2.95;;;1.60;;
12476;SDS011;6303;51.504;6.300;2022-11-11T11:37:28;1.73;;;1.60;;
12476;SDS011;6303;51.504;6.300;2022-11-11T11:40:14;2.00;;;1.80;;
12476;SDS011;6303;51.504;6.300;2022-11-11T11:42:59;2.80;;;1.88;;
12476;SDS011;6303;51.504;6.300;2022-11-11T11:45:51;1.95;;;1.40;;
12476;SDS011;6303;51.504;6.300;2022-11-11T11:48:44;3.92;;;1.75;;
12476;SDS011;6303;51.504;6.300;2022-11-11T11:51:42;3.10;;;1.52;;
12476;SDS011;6303;51.504;6.300;2022-11-11T11:54:37;1.73;;;1.50;;
12476;SDS011;6303;51.504;6.300;2022-11-11T11:57:37;1.52;;;1.40;;
12476;SDS011;6303;51.504;6.300;2022-11-11T12:00:35;1.92;;;1.67;;
12476;SDS011;6303;51.504;6.300;2022-11-11T12:03:34;2.40;;;1.60;;
12476;SDS011;6303;51.504;6.300;2022-11-11T12:06:44;2.60;;;1.70;;
12476;SDS011;6303;51.504;6.300;2022-11-11T12:09:36;2.17;;;1.60;;
12476;SDS011;6303;51.504;6.300;2022-11-11T12:12:32;2.25;;;1.50;;
12476;SDS011;6303;51.504;6.300;2022-11-11T12:15:30;1.70;;;1.48;;
12476;SDS011;6303;51.504;6.300;2022-11-11T12:18:42;2.45;;;1.58;;
12476;SDS011;6303;51.504;6.300;2022-11-11T12:21:54;4.63;;;1.80;;
12476;SDS011;6303;51.504;6.300;2022-11-11T12:24:48;1.50;;;1.30;;
12476;SDS011;6303;51.504;6.300;2022-11-11T12:27:38;3.45;;;1.60;;
12476;SDS011;6303;51.504;6.300;2022-11-11T12:30:32;2.85;;;1.77;;
12476;SDS011;6303;51.504;6.300;2022-11-11T12:36:42;1.95;;;1.58;;
12476;SDS011;6303;51.504;6.300;2022-11-11T12:39:48;3.20;;;1.70;;
12476;SDS011;6303;51.504;6.300;2022-11-11T12:42:46;3.08;;;1.80;;
12476;SDS011;6303;51.504;6.300;2022-11-11T12:45:44;2.38;;;1.80;;
12476;SDS011;6303;51.504;6.300;2022-11-11T12:48:35;2.25;;;1.60;;
12476;SDS011;6303;51.504;6.300;2022-11-11T12:51:35;1.92;;;1.60;;
12476;SDS011;6303;51.504;6.300;2022-11-11T12:54:33;3.33;;;1.80;;
12476;SDS011;6303;51.504;6.300;2022-11-11T12:57:28;4.32;;;1.92;;
12476;SDS011;6303;51.504;6.300;2022-11-11T13:00:23;5.22;;;1.70;;
12476;SDS011;6303;51.504;6.300;2022-11-11T13:06:23;7.20;;;1.80;;
12476;SDS011;6303;51.504;6.300;2022-11-11T13:09:36;2.55;;;1.33;;
12476;SDS011;6303;51.504;6.300;2022-11-11T13:12:36;2.35;;;1.52;;
12476;SDS011;6303;51.504;6.300;2022-11-11T13:15:28;1.40;;;1.27;;
12476;SDS011;6303;51.504;6.300;2022-11-11T13:18:14;3.00;;;1.60;;
12476;SDS011;6303;51.504;6.300;2022-11-11T13:21:05;1.83;;;1.27;;
12476;SDS011;6303;51.504;6.300;2022-11-11T13:23:56;3.83;;;1.60;;
12476;SDS011;6303;51.504;6.300;2022-11-11T13:26:42;2.47;;;1.67;;
12476;SDS011;6303;51.504;6.300;2022-11-11T13:29:42;3.03;;;1.58;;
12476;SDS011;6303;51.504;6.300;2022-11-11T13:32:52;3.25;;;1.40;;
12476;SDS011;6303;51.504;6.300;2022-11-11T13:35:44;3.40;;;1.50;;
12476;SDS011;6303;51.504;6.300;2022-11-11T13:38:33;1.83;;;1.30;;
12476;SDS011;6303;51.504;6.300;2022-11-11T13:41:25;3.70;;;1.70;;
12476;SDS011;6303;51.504;6.300;2022-11-11T13:44:16;2.00;;;1.38;;
12476;SDS011;6303;51.504;6.300;2022-11-11T13:47:09;2.05;;;1.30;;
12476;SDS011;6303;51.504;6.300;2022-11-11T13:50:06;1.65;;;1.30;;
12476;SDS011;6303;51.504;6.300;2022-11-11T13:52:58;2.38;;;1.50;;
12476;SDS011;6303;51.504;6.300;2022-11-11T13:55:46;2.22;;;1.38;;
12476;SDS011;6303;51.504;6.300;2022-11-11T13:58:34;3.58;;;1.50;;
12476;SDS011;6303;51.504;6.300;2022-11-11T14:01:22;2.45;;;1.27;;
12476;SDS011;6303;51.504;6.300;2022-11-11T14:04:09;1.58;;;1.30;;
12476;SDS011;6303;51.504;6.300;2022-11-11T14:06:55;3.30;;;1.30;;
12476;SDS011;6303;51.504;6.300;2022-11-11T14:09:57;1.55;;;1.30;;
12476;SDS011;6303;51.504;6.300;2022-11-11T14:12:45;2.33;;;1.15;;
12476;SDS011;6303;51.504;6.300;2022-11-11T14:15:35;1.42;;;1.27;;
12476;SDS011;6303;51.504;6.300;2022-11-11T14:18:35;2.58;;;1.40;;
12476;SDS011;6303;51.504;6.300;2022-11-11T14:21:41;2.55;;;1.30;;
12476;SDS011;6303;51.504;6.300;2022-11-11T14:24:34;2.35;;;1.40;;
12476;SDS011;6303;51.504;6.300;2022-11-11T14:27:22;2.33;;;1.30;;
12476;SDS011;6303;51.504;6.300;2022-11-11T14:30:11;1.50;;;1.30;;
12476;SDS011;6303;51.504;6.300;2022-11-11T14:33:34;1.63;;;1.20;;
12476;SDS011;6303;51.504;6.300;2022-11-11T14:36:31;1.60;;;1.20;;
12476;SDS011;6303;51.504;6.300;2022-11-11T14:39:35;1.75;;;1.30;;
12476;SDS011;6303;51.504;6.300;2022-11-11T14:42:44;1.48;;;1.38;;
12476;SDS011;6303;51.504;6.300;2022-11-11T14:48:53;1.58;;;1.48;;
12476;SDS011;6303;51.504;6.300;2022-11-11T14:51:48;1.23;;;1.10;;
12476;SDS011;6303;51.504;6.300;2022-11-11T14:57:57;1.88;;;1.10;;
12476;SDS011;6303;51.504;6.300;2022-11-11T15:00:45;1.50;;;1.40;;
12476;SDS011;6303;51.504;6.300;2022-11-11T15:03:34;1.60;;;1.17;;
12476;SDS011;6303;51.504;6.300;2022-11-11T15:06:24;1.75;;;1.02;;
12476;SDS011;6303;51.504;6.300;2022-11-11T15:09:18;1.30;;;1.10;;
12476;SDS011;6303;51.504;6.300;2022-11-11T15:12:37;1.90;;;1.40;;
12476;SDS011;6303;51.504;6.300;2022-11-11T15:15:34;2.75;;;1.38;;
12476;SDS011;6303;51.504;6.300;2022-11-11T15:21:51;5.40;;;1.30;;
12476;SDS011;6303;51.504;6.300;2022-11-11T15:24:48;4.72;;;1.55;;
12476;SDS011;6303;51.504;6.300;2022-11-11T15:27:41;3.83;;;1.33;;
12476;SDS011;6303;51.504;6.300;2022-11-11T15:30:41;14.88;;;2.20;;
12476;SDS011;6303;51.504;6.300;2022-11-11T15:33:39;11.70;;;2.88;;
12476;SDS011;6303;51.504;6.300;2022-11-11T15:36:35;8.80;;;2.55;;
12476;SDS011;6303;51.504;6.300;2022-11-11T15:39:37;13.32;;;2.90;;
12476;SDS011;6303;51.504;6.300;2022-11-11T15:42:27;8.57;;;2.40;;
12476;SDS011;6303;51.504;6.300;2022-11-11T15:45:19;8.70;;;2.60;;
12476;SDS011;6303;51.504;6.300;2022-11-11T15:48:11;11.23;;;2.55;;
12476;SDS011;6303;51.504;6.300;2022-11-11T15:51:13;7.68;;;2.50;;
12476;SDS011;6303;51.504;6.300;2022-11-11T15:54:09;8.32;;;2.50;;
12476;SDS011;6303;51.504;6.300;2022-11-11T16:00:27;8.15;;;2.30;;
12476;SDS011;6303;51.504;6.300;2022-11-11T16:03:15;6.13;;;2.30;;
12476;SDS011;6303;51.504;6.300;2022-11-11T16:06:02;4.70;;;2.20;;
12476;SDS011;6303;51.504;6.300;2022-11-11T16:08:51;5.32;;;2.10;;
12476;SDS011;6303;51.504;6.300;2022-11-11T16:11:39;6.25;;;2.13;;
12476;SDS011;6303;51.504;6.300;2022-11-11T16:14:27;6.80;;;2.30;;
12476;SDS011;6303;51.504;6.300;2022-11-11T16:17:19;7.03;;;2.50;;
12476;SDS011;6303;51.504;6.300;2022-11-11T16:20:11;5.57;;;2.40;;
12476;SDS011;6303;51.504;6.300;2022-11-11T16:22:58;6.35;;;2.28;;
12476;SDS011;6303;51.504;6.300;2022-11-11T16:25:45;6.03;;;2.17;;
12476;SDS011;6303;51.504;6.300;2022-11-11T16:28:36;5.82;;;2.53;;
12476;SDS011;6303;51.504;6.300;2022-11-11T16:31:37;9.48;;;2.35;;
12476;SDS011;6303;51.504;6.300;2022-11-11T16:34:33;6.05;;;2.63;;
12476;SDS011;6303;51.504;6.300;2022-11-11T16:37:26;5.57;;;1.95;;
12476;SDS011;6303;51.504;6.300;2022-11-11T16:40:24;4.93;;;2.20;;
12476;SDS011;6303;51.504;6.300;2022-11-11T16:43:18;4.57;;;2.10;;
12476;SDS011;6303;51.504;6.300;2022-11-11T16:46:06;3.35;;;1.92;;
12476;SDS011;6303;51.504;6.300;2022-11-11T16:48:54;5.13;;;2.45;;
12476;SDS011;6303;51.504;6.300;2022-11-11T16:51:40;4.90;;;2.38;;
12476;SDS011;6303;51.504;6.300;2022-11-11T16:54:29;3.55;;;2.05;;
12476;SDS011;6303;51.504;6.300;2022-11-11T16:57:16;5.10;;;1.98;;
12476;SDS011;6303;51.504;6.300;2022-11-11T17:00:06;5.55;;;2.25;;
12476;SDS011;6303;51.504;6.300;2022-11-11T17:03:10;3.88;;;1.90;;
12476;SDS011;6303;51.504;6.300;2022-11-11T17:05:59;4.32;;;2.15;;
12476;SDS011;6303;51.504;6.300;2022-11-11T17:08:47;5.57;;;2.13;;
12476;SDS011;6303;51.504;6.300;2022-11-11T17:11:41;4.28;;;1.80;;
12476;SDS011;6303;51.504;6.300;2022-11-11T17:14:28;3.70;;;1.90;;
12476;SDS011;6303;51.504;6.300;2022-11-11T17:17:16;2.83;;;1.95;;
12476;SDS011;6303;51.504;6.300;2022-11-11T17:20:03;3.85;;;1.70;;
12476;SDS011;6303;51.504;6.300;2022-11-11T17:22:51;2.90;;;1.85;;
12476;SDS011;6303;51.504;6.300;2022-11-11T17:25:38;2.67;;;1.70;;
12476;SDS011;6303;51.504;6.300;2022-11-11T17:28:24;2.88;;;1.90;;
12476;SDS011;6303;51.504;6.300;2022-11-11T17:31:10;3.05;;;1.70;;
12476;SDS011;6303;51.504;6.300;2022-11-11T17:33:56;3.42;;;1.65;;
12476;SDS011;6303;51.504;6.300;2022-11-11T17:36:42;3.22;;;1.70;;
12476;SDS011;6303;51.504;6.300;2022-11-11T17:39:29;2.95;;;1.70;;
12476;SDS011;6303;51.504;6.300;2022-11-11T17:42:14;3.25;;;1.90;;
12476;SDS011;6303;51.504;6.300;2022-11-11T17:45:00;3.55;;;1.90;;
12476;SDS011;6303;51.504;6.300;2022-11-11T17:47:46;3.17;;;1.80;;